Los datos mostrados corresponden al resumen diario obtenido de los registros semihorarios entre las 0:00 y las 24:00 h, en horario solar.
| Estación | Fecha | V Km/h | DV | Vx Km/h | T ºC | Tn ºC | Tx ºC | H frío | HR % | Rad MJ/m2 día | H sol | P mm | ETo mm |
|---|---|---|---|---|---|---|---|---|---|---|---|---|---|
| Almoradí | 04/05/2026 | 4.11 | SO | 22.33 | 20.24 | 16.26 | 27.27 | 0 | 77.3 | 17.66 | 10 | 0.62 | 3.77 |
| Elx | 04/05/2026 | 4.26 | N | 21.24 | 19.73 | 16 | 25.84 | 0 | 81.5 | 17.52 | 9.39 | 5 | 3.6 |
| Callosa d'En Sarrià | 04/05/2026 | 1.79 | N | 13.3 | 17.85 | 13.4 | 22.35 | 0 | 83.6 | 12.8 | 8.57 | 2.4 | 2.4 |
| Callosa d'En Sarrià (malla) | 04/05/2026 | 0.75 | E | 8.57 | 18.01 | 13.37 | 23.12 | 0 | 69 | 10.06 | 7.81 | 2 | 2.03 |
| Catral | 04/05/2026 | 4.48 | E | 23.85 | 20.22 | 15.53 | 27.2 | 0 | 76.8 | 17.17 | 9.95 | 0.39 | 3.8 |
| Altea | 04/05/2026 | 4.7 | SO | 20.74 | 18.72 | 15.29 | 23.15 | 0 | 81.4 | 21.56 | 10.58 | 2.18 | 3.74 |
| Planes | 04/05/2026 | 1.32 | E | 9.49 | 15.41 | 10.78 | 20.7 | 0 | 91 | 9.27 | 10.35 | 12.4 | 1.82 |
| Villena | 04/05/2026 | 4.51 | S | 19.58 | 16.32 | 11.35 | 21.76 | 0 | 90.1 | 11.98 | 10.05 | 3.69 | 2.5 |
| Camp de Mirra | 04/05/2026 | 3.77 | SO | 22.72 | 15.51 | 11.1 | 21.26 | 0 | 87.5 | 12.81 | 10.71 | 2.59 | 2.49 |
| Agost | 04/05/2026 | 2.74 | SE | 20.18 | 17.33 | 12.79 | 23 | 0 | 49.3 | 13.3 | 9.66 | 0.79 | 3.05 |
| Orihuela - La Murada | 04/05/2026 | 2.93 | NE | 20.01 | 18.98 | 13.96 | 26.49 | 0 | 76.6 | 16.33 | 10.6 | 0.2 | 3.33 |
| Villajoyosa | 04/05/2026 | 2.52 | SO | 15.1 | 18.22 | 14.29 | 23.42 | 0 | 81.4 | 17.06 | 10.57 | 1.19 | 3.04 |
| Ondara | 04/05/2026 | 2.18 | E | 19.02 | 18.26 | 13.53 | 23.5 | 0 | 87.4 | 12.06 | 11.98 | 1.59 | 2.38 |
| Dénia | 04/05/2026 | 2.46 | S | 16.97 | 17.96 | 12.59 | 23.72 | 0 | 79.6 | 12.39 | 11.82 | 1.65 | 2.47 |
| Pinoso | 04/05/2026 | 4.66 | S | 17.18 | 16.35 | 12.76 | 22.31 | 0 | 79.9 | 16.19 | 10.46 | 0.8 | 3.18 |
| Monforte del Cid | 04/05/2026 | 4.54 | SE | 17.89 | 18.06 | 14 | 23.69 | 0 | 81.9 | 15.59 | 8.95 | 0.79 | 3.15 |
| Crevillent | 04/05/2026 | 3.55 | E | 17.43 | 19.78 | 15.72 | 26.4 | 0 | 78.7 | 13.82 | 9.14 | 1.17 | 3.23 |
| Vall d'Uixó | 04/05/2026 | 2.24 | NO | 12.31 | 17.17 | 13.22 | 22.69 | 0 | 84.4 | 14.72 | 10.9 | 0.4 | 2.64 |
| Vila-real | 04/05/2026 | 4.82 | N | 18.34 | 18.01 | 14.79 | 22.64 | 0 | 83.8 | 13.8 | 0 | 4.6 | 2.71 |
| Onda | 04/05/2026 | 3.54 | NO | 17.32 | 16.7 | 13.58 | 21.27 | 0 | 89.1 | 13.45 | 9.76 | 3.78 | 2.44 |
| San Rafael del Río | 04/05/2026 | 2.64 | SO | 11.64 | 14.6 | 10.08 | 17.67 | 0 | 96.5 | 8.06 | 9.99 | 7.27 | 1.51 |
| Castelló de la Plana | 04/05/2026 | 1.84 | NO | 16.9 | 16.85 | 13.45 | 22.8 | 0 | 90.3 | 12.26 | 10.67 | 6.17 | 2.28 |
| Ribera de Cabanes | 04/05/2026 | 2.18 | O | 12.42 | 16.74 | 13.05 | 21.16 | 0 | 68.68 | 12.46 | 8.8 | 4.04 | 2.39 |
| Nules | 04/05/2026 | 3.2 | NE | 17.01 | 17.31 | 13.33 | 22.57 | 0 | 86.1 | 14.3 | 10.19 | 4.16 | 2.64 |
| Segorbe | 04/05/2026 | 1.53 | E | 12.81 | 15.4 | 11.09 | 22.37 | 0 | 90.1 | 14.8 | 6.79 | 1.18 | 2.52 |
| Pedralba | 04/05/2026 | 3.31 | SE | 20.67 | 17.49 | 14.68 | 23.23 | 0 | 82.7 | 15.11 | 9.98 | 0.2 | 2.83 |
| Benavites | 04/05/2026 | 2.33 | E | 13.37 | 16.74 | 11.41 | 21.28 | 0 | 88.4 | 15.51 | 10.82 | 0.6 | 2.62 |
| Moncada | 04/05/2026 | 4.79 | N | 20.07 | 18.56 | 13.14 | 22.4 | 0 | 79.17 | 20.17 | 0 | 0 | 3.48 |
| Carcaixent | 04/05/2026 | 2.94 | N | 14.8 | 19.7 | 14.34 | 26.53 | 0 | 81.9 | 15.32 | 0 | 2.8 | 3.11 |
| Carlet | 04/05/2026 | 3.66 | N | 17.27 | 19.23 | 15.74 | 25.01 | 0 | 84.1 | 18.04 | 11.69 | 0.7 | 3.42 |
| Llutxent | 04/05/2026 | 2.59 | N | 12.98 | 16.79 | 13.66 | 22.05 | 0 | 89.3 | 14.07 | 0 | 16.2 | 2.57 |
| Requena | 04/05/2026 | 4.26 | N | 22.34 | 15.65 | 11.78 | 21.52 | 0 | 70.5 | 21.91 | 11.14 | 0.1 | 3.81 |
| Algimia de Alfara | 04/05/2026 | 2.98 | E | 18.52 | 17.01 | 12.66 | 22.24 | 0 | 86.2 | 16.34 | 0 | 1.02 | 2.85 |
| Valencia - UPV | 04/05/2026 | 4.61 | E | 19.97 | 18.74 | 15.65 | 21.16 | 0 | 78.3 | 13.36 | 0 | 0 | 2.63 |
| Algemesí | 04/05/2026 | 2.69 | SE | 17.68 | 18.59 | 15.37 | 24.19 | 0 | 87.1 | 13.79 | 10.8 | 2.4 | 2.74 |
| Picassent | 04/05/2026 | 2.28 | E | 16.23 | 18.2 | 14.27 | 23.92 | 0 | 84.8 | 15.68 | 11.7 | 0 | 2.87 |
| Montesa | 04/05/2026 | 0.81 | E | 10.2 | 17.31 | 14.75 | 22.87 | 0 | 88.3 | 13.26 | 9.38 | 5.7 | 2.4 |
| Xàtiva | 04/05/2026 | 1.46 | SE | 14.25 | 18.09 | 13.56 | 23.79 | 0 | 86 | 13.05 | 10.51 | 6.8 | 2.47 |
| Llíria | 04/05/2026 | 2.91 | N | 19.4 | 17.26 | 13.79 | 23.27 | 0 | 84.2 | 14.94 | 9.82 | 0.78 | 2.78 |
| Sagunt | 04/05/2026 | 4.89 | NE | 17.29 | 18.08 | 14.78 | 21.86 | 0 | 79.5 | 15.76 | 11.16 | 0 | 2.94 |
| Campo Arcís | 04/05/2026 | 3.84 | SO | 24.09 | 16.12 | 10.17 | 22.68 | 0 | 73.9 | 20.16 | 10.33 | 1.01 | 3.68 |
| Villalonga | 04/05/2026 | 1.7 | S | 10.9 | 17.61 | 14.39 | 22.48 | 0 | 96.6 | 11.45 | 9.53 | 19.9 | 2.15 |
| Gandía | 04/05/2026 | 1.35 | SO | 10.44 | 17.84 | 13.8 | 22.51 | 0 | 88.4 | 13.61 | 10.82 | 18.62 | 2.47 |
| Bolbaite | 04/05/2026 | 2.47 | S | 16.37 | 17.31 | 14.29 | 23.3 | 0 | 89.9 | 11.38 | 9.47 | 5.15 | 2.3 |
| Bétera | 04/05/2026 | 4.55 | E | 20.78 | 18.04 | 13.48 | 21.92 | 0 | 80.5 | 18.49 | 12.05 | 0 | 3.22 |
| Chulilla | 04/05/2026 | 3.24 | SE | 16.48 | 16.38 | 13.61 | 22.24 | 0 | 85.8 | 17.18 | 9.74 | 1 | 3.03 |
| Godelleta | 04/05/2026 | 2.48 | SE | 14.71 | 17.78 | 13.08 | 23.42 | 0 | 84.3 | 17.33 | 11.87 | 0 | 3.09 |
| Bèlgida | 04/05/2026 | 1.95 | S | 14.75 | 16.91 | 13.54 | 22.49 | 0 | 90.8 | 13.56 | 9.82 | 21.89 | 2.47 |
| Polinyà de Xúquer | 04/05/2026 | 2.41 | E | 14.57 | 18.81 | 14.97 | 23.89 | 0 | 87.6 | 16.01 | 10.94 | 2.19 | 2.9 |
| Benifaió | 04/05/2026 | 1.87 | E | 15.21 | 18.79 | 15.64 | 24.3 | 0 | 85.3 | 15.29 | 11.63 | 0.2 | 2.85 |
| Cheste | 04/05/2026 | 1.47 | E | 11.01 | 16.79 | 11.21 | 23.17 | 0 | 83.7 | 13.87 | 10.76 | 2.1 | 2.51 |
| Tavernes de la Valldigna | 04/05/2026 | 3.32 | SE | 19.05 | 18.43 | 14.87 | 22.6 | 0 | 91.2 | 12.75 | 10.33 | 6.17 | 2.48 |
| Castelló | 04/05/2026 | 1.64 | S | 13.8 | 18.62 | 14.52 | 24.4 | 0 | 84.2 | 12.57 | 9.57 | 3.42 | 2.47 |
© Copyright 2011, Instituto Valenciano de Investigaciones Agrarias.
Los datos meteorológicos ofrecidos es esta página son informativos, por lo que carecen de carácter oficial. Los datos son publicados automáticamente y, por lo tanto, pueden no estar sujetos a una completa validación.
|
Cargando ...espere por favor... |